createdAt,value
2023-02-04T00:01:00.545Z,8.41
2023-02-04T00:02:44.402Z,8.40
2023-02-04T00:04:25.105Z,8.40
2023-02-04T00:07:06.768Z,8.37
2023-02-04T00:08:19.937Z,8.33
2023-02-04T00:10:56.893Z,8.35
2023-02-04T00:14:33.163Z,8.31
2023-02-04T00:16:22.132Z,8.31
2023-02-04T00:19:19.520Z,8.30
2023-02-04T00:21:13.494Z,8.29
2023-02-04T00:23:25.232Z,8.29
2023-02-04T00:25:18.042Z,8.27
2023-02-04T00:27:48.665Z,8.28
2023-02-04T00:29:20.045Z,8.28
2023-02-04T00:31:40.205Z,8.28
2023-02-04T00:33:24.345Z,8.27
2023-02-04T00:35:04.984Z,8.23
2023-02-04T00:36:39.393Z,8.25
2023-02-04T00:38:11.556Z,8.23
2023-02-04T00:39:43.497Z,8.19
2023-02-04T00:41:15.495Z,8.21
2023-02-04T00:42:47.512Z,8.22
2023-02-04T00:44:19.584Z,8.23
2023-02-04T00:45:54.593Z,8.22
2023-02-04T00:47:26.648Z,8.20
2023-02-04T00:48:58.624Z,8.19
2023-02-04T00:50:30.937Z,8.16
2023-02-04T00:52:03.061Z,8.18
2023-02-04T00:53:39.550Z,8.18
2023-02-04T00:55:15.945Z,8.19
2023-02-04T00:56:48.830Z,8.16
2023-02-04T00:58:20.941Z,8.16
2023-02-04T00:59:54.139Z,8.18
2023-02-04T01:01:26.372Z,8.17
2023-02-04T01:02:58.490Z,8.19
2023-02-04T01:04:30.712Z,8.21
2023-02-04T01:06:02.775Z,8.19
2023-02-04T01:07:35.090Z,8.18
2023-02-04T01:09:07.169Z,8.21
2023-02-04T01:10:39.135Z,8.20
2023-02-04T01:12:11.813Z,8.19
2023-02-04T01:13:43.772Z,8.15
2023-02-04T01:15:16.273Z,8.15
2023-02-04T01:16:48.511Z,8.10
2023-02-04T01:18:21.074Z,8.10
2023-02-04T01:19:53.741Z,8.12
2023-02-04T01:21:25.863Z,8.12
2023-02-04T01:25:31.618Z,8.08
2023-02-04T01:27:06.471Z,8.05
2023-02-04T01:28:41.546Z,8.02
2023-02-04T01:30:21.867Z,8.01
2023-02-04T01:32:13.006Z,7.99
2023-02-04T01:33:52.141Z,7.98
2023-02-04T01:35:30.610Z,7.98
2023-02-04T01:37:09.233Z,7.96
2023-02-04T01:38:44.084Z,7.93
2023-02-04T01:40:19.160Z,7.94
2023-02-04T01:41:53.500Z,7.93
2023-02-04T01:43:27.692Z,7.94
2023-02-04T01:45:02.015Z,7.94
2023-02-04T01:46:37.737Z,7.89
2023-02-04T01:48:09.803Z,7.89
2023-02-04T01:49:46.971Z,7.88
2023-02-04T01:51:27.285Z,7.88
2023-02-04T01:52:59.942Z,7.89
2023-02-04T01:54:36.969Z,7.85
2023-02-04T01:56:20.626Z,7.86
2023-02-04T01:58:08.810Z,7.84
2023-02-04T01:59:47.367Z,7.80
2023-02-04T02:01:35.685Z,7.78
2023-02-04T02:03:24.721Z,7.78
2023-02-04T02:04:59.162Z,7.76
2023-02-04T02:06:31.327Z,7.75
2023-02-04T02:08:04.508Z,7.72
2023-02-04T02:09:37.995Z,7.70
2023-02-04T02:11:12.550Z,7.71
2023-02-04T02:12:45.642Z,7.68
2023-02-04T02:14:17.755Z,7.66
2023-02-04T02:15:52.768Z,7.66
2023-02-04T02:17:24.856Z,7.67
2023-02-04T02:19:01.919Z,7.65
2023-02-04T02:20:34.217Z,7.67
2023-02-04T02:22:15.674Z,7.64
2023-02-04T02:23:50.267Z,7.60
2023-02-04T02:25:23.252Z,7.62
2023-02-04T02:26:57.056Z,7.60
2023-02-04T02:28:30.021Z,7.59
2023-02-04T02:30:02.417Z,7.61
2023-02-04T02:31:35.615Z,7.61
2023-02-04T02:33:10.428Z,7.60
2023-02-04T02:34:43.530Z,7.59
2023-02-04T02:36:37.452Z,7.57
2023-02-04T02:38:11.417Z,7.60
2023-02-04T02:39:47.812Z,7.59
2023-02-04T02:41:22.230Z,7.58
2023-02-04T02:42:55.207Z,7.59
2023-02-04T02:44:27.533Z,7.59
2023-02-04T02:46:01.420Z,7.63
2023-02-04T02:47:35.741Z,7.62
2023-02-04T02:49:11.381Z,7.64
2023-02-04T02:50:43.850Z,7.64
2023-02-04T02:52:16.150Z,7.62
2023-02-04T02:53:49.547Z,7.58
2023-02-04T02:55:24.211Z,7.61
2023-02-04T02:57:00.040Z,7.60
2023-02-04T02:58:33.909Z,7.65
2023-02-04T03:00:14.773Z,7.64
2023-02-04T03:04:09.985Z,7.57
2023-02-04T03:05:44.500Z,7.58
2023-02-04T03:07:20.302Z,7.60
2023-02-04T03:08:55.499Z,7.57
2023-02-04T03:10:27.582Z,7.56
2023-02-04T03:11:59.602Z,7.56
2023-02-04T03:13:34.068Z,7.57
2023-02-04T03:15:06.532Z,7.53
2023-02-04T03:16:38.679Z,7.53
2023-02-04T03:18:11.712Z,7.50
2023-02-04T03:19:43.825Z,7.51
2023-02-04T03:21:15.993Z,7.49
2023-02-04T03:22:49.169Z,7.45
2023-02-04T03:24:21.280Z,7.43
2023-02-04T03:25:53.457Z,7.42
2023-02-04T03:27:25.515Z,7.42
2023-02-04T03:28:57.395Z,7.40
2023-02-04T03:30:30.547Z,7.38
2023-02-04T03:32:03.298Z,7.37
2023-02-04T03:33:36.136Z,7.39
2023-02-04T03:35:08.202Z,7.35
2023-02-04T03:36:40.199Z,7.34
2023-02-04T03:38:12.370Z,7.33
2023-02-04T03:39:47.250Z,7.33
2023-02-04T03:41:22.095Z,7.32
2023-02-04T03:42:54.056Z,7.32
2023-02-04T03:44:27.182Z,7.31
2023-02-04T03:45:59.332Z,7.32
2023-02-04T03:47:31.319Z,7.30
2023-02-04T03:49:05.252Z,7.31
2023-02-04T03:50:37.176Z,7.32
2023-02-04T03:52:09.168Z,7.31
2023-02-04T03:53:42.451Z,7.31
2023-02-04T03:55:14.426Z,7.31
2023-02-04T03:56:46.433Z,7.31
2023-02-04T03:58:18.440Z,7.31
2023-02-04T03:59:52.034Z,7.30
2023-02-04T04:01:24.007Z,7.29
2023-02-04T04:02:57.692Z,7.28
2023-02-04T04:04:29.811Z,7.30
2023-02-04T04:06:01.807Z,7.28
2023-02-04T04:07:35.913Z,7.25
2023-02-04T04:09:08.015Z,7.22
2023-02-04T04:10:42.367Z,7.23
2023-02-04T04:12:19.653Z,7.24
2023-02-04T04:13:51.985Z,7.24
2023-02-04T04:15:24.029Z,7.24
2023-02-04T04:16:56.136Z,7.22
2023-02-04T04:18:28.213Z,7.22
2023-02-04T04:20:02.716Z,7.26
2023-02-04T04:21:38.038Z,7.25
2023-02-04T04:23:10.020Z,7.25
2023-02-04T04:24:42.970Z,7.24
2023-02-04T04:26:14.838Z,7.27
2023-02-04T04:27:47.120Z,7.24
2023-02-04T04:29:19.071Z,7.22
2023-02-04T04:30:51.131Z,7.23
2023-02-04T04:32:23.796Z,7.25
2023-02-04T04:33:55.836Z,7.23
2023-02-04T04:35:30.372Z,7.22
2023-02-04T04:37:02.615Z,7.23
2023-02-04T04:38:37.350Z,7.24
2023-02-04T04:40:11.935Z,7.20
2023-02-04T04:41:44.031Z,7.19
2023-02-04T04:43:15.935Z,7.18
2023-02-04T04:44:47.922Z,7.22
2023-02-04T04:46:22.113Z,7.24
2023-02-04T04:47:54.597Z,7.26
2023-02-04T04:49:26.542Z,7.22
2023-02-04T04:50:58.717Z,7.20
2023-02-04T04:52:30.682Z,7.23
2023-02-04T04:54:02.822Z,7.26
2023-02-04T04:55:34.907Z,7.26
2023-02-04T04:57:06.819Z,7.31
2023-02-04T04:58:47.749Z,7.32
2023-02-04T05:00:22.350Z,7.32
2023-02-04T05:01:54.331Z,7.32
2023-02-04T05:03:26.278Z,7.34
2023-02-04T05:04:58.283Z,7.34
2023-02-04T05:06:30.263Z,7.34
2023-02-04T05:08:04.857Z,7.37
2023-02-04T05:09:36.857Z,7.37
2023-02-04T05:11:08.778Z,7.39
2023-02-04T05:12:41.039Z,7.37
2023-02-04T05:14:13.105Z,7.38
2023-02-04T05:15:45.208Z,7.39
2023-02-04T05:17:17.507Z,7.38
2023-02-04T05:18:49.635Z,7.39
2023-02-04T05:20:21.808Z,7.38
2023-02-04T05:21:54.153Z,7.39
2023-02-04T05:23:26.257Z,7.41
2023-02-04T05:24:58.472Z,7.43
2023-02-04T05:26:31.444Z,7.39
2023-02-04T05:28:05.569Z,7.39
2023-02-04T05:29:37.713Z,7.42
2023-02-04T05:33:58.326Z,7.43
2023-02-04T05:35:33.778Z,7.44
2023-02-04T05:37:05.918Z,7.42
2023-02-04T05:38:41.284Z,7.43
2023-02-04T05:40:17.307Z,7.45
2023-02-04T05:41:49.371Z,7.49
2023-02-04T05:43:21.530Z,7.52
2023-02-04T05:44:53.726Z,7.51
2023-02-04T05:46:25.753Z,7.51
2023-02-04T05:47:57.828Z,7.51
2023-02-04T05:49:29.962Z,7.51
2023-02-04T05:51:02.150Z,7.52
2023-02-04T05:52:34.391Z,7.53
2023-02-04T05:54:06.564Z,7.53
2023-02-04T05:55:38.731Z,7.56
2023-02-04T05:57:10.877Z,7.58
2023-02-04T05:58:43.027Z,7.57
2023-02-04T06:00:15.251Z,7.59
2023-02-04T06:01:47.461Z,7.59
2023-02-04T06:03:19.867Z,7.60
2023-02-04T06:04:52.496Z,7.57
2023-02-04T06:06:24.668Z,7.53
2023-02-04T06:07:56.775Z,7.54
2023-02-04T06:09:28.876Z,7.56
2023-02-04T06:11:01.052Z,7.55
2023-02-04T06:12:34.289Z,7.53
2023-02-04T06:14:08.685Z,7.54
2023-02-04T06:15:40.946Z,7.54
2023-02-04T06:17:13.206Z,7.56
2023-02-04T06:18:45.261Z,7.57
2023-02-04T06:20:17.638Z,7.60
2023-02-04T06:21:49.688Z,7.62
2023-02-04T06:23:21.817Z,7.64
2023-02-04T06:25:04.048Z,7.67
2023-02-04T06:26:36.276Z,7.66
2023-02-04T06:28:08.585Z,7.65
2023-02-04T06:29:40.696Z,7.65
2023-02-04T06:31:12.989Z,7.65
2023-02-04T06:32:45.410Z,7.67
2023-02-04T06:34:17.443Z,7.62
2023-02-04T06:35:49.756Z,7.57
2023-02-04T06:37:24.269Z,7.55
2023-02-04T06:38:56.641Z,7.53
2023-02-04T06:40:28.757Z,7.49
2023-02-04T06:42:00.892Z,7.49
2023-02-04T06:43:33.037Z,7.52
2023-02-04T06:45:08.579Z,7.54
2023-02-04T06:46:40.631Z,7.55
2023-02-04T06:48:12.758Z,7.52
2023-02-04T06:49:44.951Z,7.51
2023-02-04T06:51:17.215Z,7.55
2023-02-04T06:52:49.369Z,7.55
2023-02-04T06:54:21.662Z,7.58
2023-02-04T06:55:53.880Z,7.60
2023-02-04T06:57:26.076Z,7.59
2023-02-04T06:58:58.206Z,7.56
2023-02-04T07:00:31.848Z,7.53
2023-02-04T07:02:05.144Z,7.52
2023-02-04T07:03:37.258Z,7.50
2023-02-04T07:05:09.669Z,7.49
2023-02-04T07:06:44.137Z,7.44
2023-02-04T07:08:16.146Z,7.41
2023-02-04T07:09:48.252Z,7.36
2023-02-04T07:11:20.365Z,7.37
2023-02-04T07:12:52.857Z,7.36
2023-02-04T07:14:27.404Z,7.37
2023-02-04T07:16:03.382Z,7.35
2023-02-04T07:17:37.890Z,7.33
2023-02-04T07:19:10.279Z,7.30
2023-02-04T07:20:44.594Z,7.32
2023-02-04T07:22:16.966Z,7.33
2023-02-04T07:23:51.631Z,7.31
2023-02-04T07:25:24.035Z,7.28
2023-02-04T07:27:11.124Z,7.28
2023-02-04T07:28:43.937Z,7.27
2023-02-04T07:30:17.474Z,7.24
2023-02-04T07:31:56.005Z,7.23
2023-02-04T07:33:34.295Z,7.25
2023-02-04T07:35:13.349Z,7.27
2023-02-04T07:36:45.998Z,7.25
2023-02-04T07:38:25.744Z,7.26
2023-02-04T07:40:02.503Z,7.21
2023-02-04T07:41:35.160Z,7.20
2023-02-04T07:43:14.013Z,7.19
2023-02-04T07:44:46.256Z,7.16
2023-02-04T07:46:20.744Z,7.15
2023-02-04T07:47:52.952Z,7.14
2023-02-04T07:49:27.770Z,7.14
2023-02-04T07:51:00.036Z,7.11
2023-02-04T07:52:32.234Z,7.12
2023-02-04T07:54:04.560Z,7.10
2023-02-04T07:55:36.686Z,7.12
2023-02-04T07:57:08.890Z,7.12
2023-02-04T07:58:41.137Z,7.11
2023-02-04T08:00:14.740Z,7.12
2023-02-04T08:01:50.205Z,7.13
2023-02-04T08:03:22.224Z,7.14
2023-02-04T08:04:54.289Z,7.14
2023-02-04T08:06:26.348Z,7.16
2023-02-04T08:07:58.876Z,7.16
2023-02-04T08:09:34.673Z,7.15
2023-02-04T08:11:06.854Z,7.16
2023-02-04T08:12:38.933Z,7.17
2023-02-04T08:14:11.247Z,7.18
2023-02-04T08:15:43.411Z,7.18
2023-02-04T08:17:15.580Z,7.19
2023-02-04T08:18:47.816Z,7.17
2023-02-04T08:20:20.026Z,7.20
2023-02-04T08:21:52.247Z,7.22
2023-02-04T08:23:27.079Z,7.25
2023-02-04T08:24:59.240Z,7.25
2023-02-04T08:26:31.332Z,7.26
2023-02-04T08:28:04.029Z,7.30
2023-02-04T08:29:39.112Z,7.32
2023-02-04T08:31:12.245Z,7.35
2023-02-04T08:32:44.558Z,7.38
2023-02-04T08:34:16.747Z,7.38
2023-02-04T08:35:49.014Z,7.42
2023-02-04T08:37:24.026Z,7.45
2023-02-04T08:38:56.385Z,7.48
2023-02-04T08:40:28.838Z,7.49
2023-02-04T08:42:01.021Z,7.50
2023-02-04T08:45:45.051Z,7.52
2023-02-04T08:47:19.622Z,7.52
2023-02-04T08:48:51.761Z,7.55
2023-02-04T08:50:23.923Z,7.56
2023-02-04T08:51:56.042Z,7.58
2023-02-04T08:53:28.063Z,7.63
2023-02-04T08:55:03.501Z,7.66
2023-02-04T08:56:37.965Z,7.65
2023-02-04T08:58:15.412Z,7.65
2023-02-04T08:59:50.679Z,7.66
2023-02-04T09:01:34.589Z,7.71
2023-02-04T09:03:11.533Z,7.73
2023-02-04T09:04:54.369Z,7.77
2023-02-04T09:08:05.243Z,7.79
2023-02-04T09:08:52.939Z,7.83
2023-02-04T09:10:45.577Z,7.86
2023-02-04T09:12:17.833Z,7.88
2023-02-04T09:13:50.759Z,7.90
2023-02-04T09:15:25.264Z,7.97
2023-02-04T09:16:57.418Z,8.00
2023-02-04T09:18:30.990Z,7.99
2023-02-04T09:20:03.366Z,8.03
2023-02-04T09:21:35.519Z,8.06
2023-02-04T09:23:10.195Z,8.03
2023-02-04T09:24:42.505Z,8.03
2023-02-04T09:26:14.696Z,8.05
2023-02-04T09:27:46.875Z,8.06
2023-02-04T09:29:19.039Z,8.07
2023-02-04T09:30:54.791Z,8.08
2023-02-04T09:32:26.993Z,8.07
2023-02-04T09:34:00.363Z,8.06
2023-02-04T09:35:32.656Z,8.07
2023-02-04T09:37:04.755Z,8.11
2023-02-04T09:38:37.280Z,8.15
2023-02-04T09:40:14.363Z,8.18
2023-02-04T09:41:49.024Z,8.17
2023-02-04T09:43:26.784Z,8.18
2023-02-04T09:45:00.977Z,8.27
2023-02-04T09:46:33.657Z,8.30
2023-02-04T09:48:09.030Z,8.36
2023-02-04T09:49:47.177Z,8.32
2023-02-04T09:51:26.133Z,8.37
2023-02-04T09:53:06.042Z,8.42
2023-02-04T09:54:42.443Z,8.44
2023-02-04T09:56:15.269Z,8.49
2023-02-04T09:57:48.426Z,8.47
2023-02-04T09:59:24.306Z,8.46
2023-02-04T10:01:02.284Z,8.46
2023-02-04T10:02:39.425Z,8.46
2023-02-04T10:04:15.871Z,8.45
2023-02-04T10:05:50.872Z,8.52
2023-02-04T10:07:27.280Z,8.58
2023-02-04T10:08:59.939Z,8.59
2023-02-04T10:10:35.474Z,8.57
2023-02-04T10:12:07.627Z,8.59
2023-02-04T10:13:45.665Z,8.58
2023-02-04T10:15:22.709Z,8.65
2023-02-04T10:16:59.094Z,8.72
2023-02-04T10:18:43.052Z,8.75
2023-02-04T10:20:16.258Z,8.75
2023-02-04T10:21:51.123Z,8.72
2023-02-04T10:23:25.877Z,8.83
2023-02-04T10:25:06.816Z,8.89
2023-02-04T10:26:38.978Z,8.95
2023-02-04T10:28:12.200Z,8.98
2023-02-04T10:29:56.919Z,9.03
2023-02-04T10:31:40.751Z,9.08
2023-02-04T10:33:35.630Z,9.14
2023-02-04T10:35:15.366Z,9.27
2023-02-04T10:36:52.816Z,9.26
2023-02-04T10:38:27.776Z,9.30
2023-02-04T10:40:02.004Z,9.36
2023-02-04T10:41:38.958Z,9.52
2023-02-04T10:43:16.054Z,9.59
2023-02-04T10:44:48.625Z,9.58
2023-02-04T10:46:25.967Z,9.74
2023-02-04T10:47:58.164Z,9.92
2023-02-04T10:49:30.734Z,10.00
2023-02-04T10:51:08.351Z,10.09
2023-02-04T10:52:42.945Z,10.19
2023-02-04T10:54:38.453Z,10.24
2023-02-04T10:56:21.178Z,10.05
2023-02-04T10:58:02.456Z,10.07
2023-02-04T10:59:42.013Z,10.16
2023-02-04T11:01:17.220Z,10.25
2023-02-04T11:03:11.608Z,10.26
2023-02-04T11:05:12.093Z,10.34
2023-02-04T11:07:11.339Z,10.41
2023-02-04T11:08:46.975Z,10.51
2023-02-04T11:10:30.921Z,10.65
2023-02-04T11:12:24.109Z,10.77
2023-02-04T11:14:03.744Z,10.92
2023-02-04T11:15:51.011Z,10.87
2023-02-04T11:17:31.672Z,10.73
2023-02-04T11:19:16.673Z,10.59
2023-02-04T11:20:53.274Z,10.49
2023-02-04T11:22:41.878Z,10.48
2023-02-04T11:24:15.789Z,10.46
2023-02-04T11:25:52.454Z,10.49
2023-02-04T11:27:35.126Z,10.62
2023-02-04T11:29:09.320Z,10.75
2023-02-04T11:30:44.322Z,10.88
2023-02-04T11:32:35.582Z,10.92
2023-02-04T11:34:16.703Z,10.86
2023-02-04T11:36:18.123Z,10.95
2023-02-04T11:37:51.058Z,11.05
2023-02-04T11:39:27.501Z,11.11
2023-02-04T11:41:02.543Z,11.06
2023-02-04T11:42:45.368Z,10.99
2023-02-04T11:44:18.302Z,11.02
2023-02-04T11:46:02.090Z,11.01
2023-02-04T11:47:36.126Z,11.06
2023-02-04T11:49:18.483Z,11.16
2023-02-04T11:51:02.139Z,11.21
2023-02-04T11:52:40.473Z,11.23
2023-02-04T11:54:14.507Z,11.24
2023-02-04T11:55:49.851Z,11.31
2023-02-04T11:57:24.637Z,11.33
2023-02-04T11:58:58.357Z,11.41
2023-02-04T12:00:32.413Z,11.44
2023-02-04T12:02:25.171Z,11.38
2023-02-04T12:04:13.097Z,11.36
2023-02-04T12:05:48.070Z,11.39
2023-02-04T12:07:40.317Z,11.37
2023-02-04T12:09:20.502Z,11.35
2023-02-04T12:11:07.734Z,11.39
2023-02-04T12:13:01.287Z,11.40
2023-02-04T12:14:37.680Z,11.44
2023-02-04T12:16:15.121Z,11.47
2023-02-04T12:18:02.022Z,11.58
2023-02-04T12:19:36.526Z,11.60
2023-02-04T12:21:08.753Z,11.58
2023-02-04T12:22:43.437Z,11.50
2023-02-04T12:24:16.286Z,11.48
2023-02-04T12:25:49.325Z,11.44
2023-02-04T12:27:26.441Z,11.33
2023-02-04T12:29:01.728Z,11.24
2023-02-04T12:30:36.602Z,11.20
2023-02-04T12:32:15.462Z,11.18
2023-02-04T12:33:50.336Z,11.22
2023-02-04T12:35:25.263Z,11.16
2023-02-04T12:36:59.760Z,11.16
2023-02-04T12:38:34.041Z,11.09
2023-02-04T12:40:11.063Z,11.11
2023-02-04T12:41:54.598Z,11.11
2023-02-04T12:43:36.941Z,11.11
2023-02-04T12:45:21.564Z,11.07
2023-02-04T12:46:56.217Z,11.08
2023-02-04T12:48:29.494Z,11.03
2023-02-04T12:50:10.990Z,10.96
2023-02-04T12:51:46.668Z,10.88
2023-02-04T12:53:23.636Z,10.86
2023-02-04T12:55:03.068Z,10.85
2023-02-04T12:57:13.580Z,10.84
2023-02-04T12:58:45.589Z,10.86
2023-02-04T13:00:24.278Z,10.95
2023-02-04T13:02:04.064Z,10.96
2023-02-04T13:03:36.483Z,10.92
2023-02-04T13:05:15.993Z,10.83
2023-02-04T13:06:53.856Z,10.80
2023-02-04T13:08:42.573Z,10.86
2023-02-04T13:10:22.025Z,10.82
2023-02-04T13:11:58.880Z,10.79
2023-02-04T13:13:48.824Z,10.81
2023-02-04T13:15:22.202Z,10.80
2023-02-04T13:16:54.536Z,10.71
2023-02-04T13:18:51.375Z,10.75
2023-02-04T13:20:24.333Z,10.78
2023-02-04T13:22:00.881Z,10.85
2023-02-04T13:23:32.907Z,10.92
2023-02-04T13:25:15.626Z,10.95
2023-02-04T13:26:47.741Z,10.92
2023-02-04T13:28:19.939Z,10.86
2023-02-04T13:30:06.434Z,10.87
2023-02-04T13:31:46.974Z,10.92
2023-02-04T13:33:29.405Z,10.95
2023-02-04T13:35:04.918Z,11.02
2023-02-04T13:36:48.223Z,11.02
2023-02-04T13:38:20.568Z,11.04
2023-02-04T13:39:56.394Z,11.05
2023-02-04T13:41:39.061Z,11.08
2023-02-04T13:43:15.591Z,11.09
2023-02-04T13:45:16.986Z,11.02
2023-02-04T13:46:50.016Z,11.03
2023-02-04T13:49:29.183Z,10.97
2023-02-04T13:51:16.298Z,10.98
2023-02-04T13:52:57.927Z,10.90
2023-02-04T13:54:31.240Z,10.87
2023-02-04T13:59:00.940Z,10.88
2023-02-04T14:01:04.411Z,10.83
2023-02-04T14:03:21.218Z,10.91
2023-02-04T14:05:04.011Z,10.89
2023-02-04T14:06:45.077Z,11.01
2023-02-04T14:08:17.569Z,10.96
2023-02-04T14:09:49.935Z,10.96
2023-02-04T14:11:22.008Z,10.96
2023-02-04T14:12:59.057Z,10.95
2023-02-04T14:14:31.041Z,11.06
2023-02-04T14:16:08.086Z,11.06
2023-02-04T14:17:42.167Z,11.06
2023-02-04T14:19:15.370Z,11.17
2023-02-04T14:20:50.714Z,11.13
2023-02-04T14:22:36.356Z,11.11
2023-02-04T14:24:22.659Z,11.09
2023-02-04T14:26:09.274Z,11.10
2023-02-04T14:27:44.134Z,10.98
2023-02-04T14:29:16.345Z,11.04
2023-02-04T14:31:13.512Z,11.03
2023-02-04T14:32:54.628Z,11.11
2023-02-04T14:34:53.357Z,11.05
2023-02-04T14:36:30.064Z,11.09
2023-02-04T14:38:02.128Z,11.17
2023-02-04T14:39:38.637Z,11.24
2023-02-04T14:41:15.808Z,11.20
2023-02-04T14:42:48.026Z,11.15
2023-02-04T14:44:30.878Z,11.23
2023-02-04T14:46:07.924Z,11.19
2023-02-04T14:47:56.092Z,11.25
2023-02-04T14:49:50.931Z,11.25
2023-02-04T14:51:38.348Z,11.29
2023-02-04T14:53:17.678Z,11.24
2023-02-04T14:55:00.755Z,11.19
2023-02-04T14:56:47.248Z,11.16
2023-02-04T14:58:44.440Z,11.10
2023-02-04T15:00:28.576Z,11.13
2023-02-04T15:02:17.848Z,11.03
2023-02-04T15:03:51.106Z,11.07
2023-02-04T15:05:25.957Z,11.09
2023-02-04T15:07:05.566Z,11.11
2023-02-04T15:08:45.170Z,11.08
2023-02-04T15:10:17.379Z,11.05
2023-02-04T15:12:10.393Z,11.15
2023-02-04T15:13:50.168Z,11.22
2023-02-04T15:15:27.301Z,11.21
2023-02-04T15:19:07.875Z,11.10
2023-02-04T15:21:16.189Z,11.15
2023-02-04T15:22:52.024Z,11.17
2023-02-04T15:24:35.381Z,11.21
2023-02-04T15:26:21.538Z,11.19
2023-02-04T15:28:12.144Z,11.19
2023-02-04T15:29:55.672Z,11.21
2023-02-04T15:31:38.165Z,11.18
2023-02-04T15:33:25.729Z,11.04
2023-02-04T15:35:34.109Z,10.97
2023-02-04T15:37:17.940Z,10.93
2023-02-04T15:39:31.684Z,10.91
2023-02-04T15:41:21.661Z,10.95
2023-02-04T15:43:00.248Z,10.93
2023-02-04T15:44:32.972Z,10.92
2023-02-04T15:47:08.724Z,10.97
2023-02-04T15:48:24.572Z,10.95
2023-02-04T15:49:58.968Z,10.96
2023-02-04T15:51:33.411Z,10.99
2023-02-04T15:55:18.296Z,11.02
2023-02-04T15:55:43.764Z,10.98
2023-02-04T15:57:18.064Z,10.94
2023-02-04T15:58:50.460Z,10.93
2023-02-04T16:00:24.339Z,10.95
2023-02-04T16:01:56.498Z,10.95
2023-02-04T16:03:47.424Z,10.96
2023-02-04T16:07:31.699Z,10.94
2023-02-04T16:15:09.009Z,10.93
2023-02-04T16:18:43.849Z,10.89
2023-02-04T16:19:22.452Z,10.98
2023-02-04T16:20:19.472Z,10.89
2023-02-04T16:22:14.174Z,10.91
2023-02-04T16:26:20.266Z,10.91
2023-02-04T16:28:22.708Z,10.90
2023-02-04T16:30:34.827Z,10.89
2023-02-04T16:32:26.160Z,10.89
2023-02-04T16:35:37.344Z,10.86
2023-02-04T16:37:46.728Z,10.81
2023-02-04T16:46:43.978Z,10.74
2023-02-04T16:47:20.935Z,10.75
2023-02-04T17:17:55.851Z,10.50
2023-02-04T17:25:43.270Z,10.44
2023-02-04T17:28:23.216Z,10.47
2023-02-04T17:29:48.457Z,10.43
2023-02-04T17:31:31.239Z,10.40
2023-02-04T17:35:54.459Z,10.38
2023-02-04T17:37:38.430Z,10.40
2023-02-04T17:37:47.048Z,10.39
2023-02-04T17:39:10.635Z,10.40
2023-02-04T17:40:43.468Z,10.41
2023-02-04T17:42:32.722Z,10.42
2023-02-04T17:45:07.306Z,10.40
2023-02-04T17:47:48.844Z,10.38
2023-02-04T17:49:28.217Z,10.38
2023-02-04T17:51:38.952Z,10.38
2023-02-04T17:53:16.781Z,10.37
2023-02-04T17:55:42.249Z,10.36
2023-02-04T17:57:23.473Z,10.32
2023-02-04T17:59:58.002Z,10.28
2023-02-04T18:04:52.479Z,10.18
2023-02-04T18:07:07.552Z,10.13
2023-02-04T18:11:00.653Z,10.02
2023-02-04T18:22:20.269Z,9.92
2023-02-04T18:23:18.030Z,9.90
2023-02-04T18:25:52.691Z,9.89
2023-02-04T18:30:09.853Z,9.78
2023-02-04T18:32:01.754Z,9.79
2023-02-04T18:34:04.244Z,9.80
2023-02-04T18:42:04.673Z,9.89
2023-02-04T18:50:07.324Z,9.89
2023-02-04T18:53:57.224Z,9.90
2023-02-04T18:54:56.951Z,9.81
2023-02-04T18:57:27.138Z,9.74
2023-02-04T18:59:56.488Z,9.69
2023-02-04T19:01:35.899Z,9.70
2023-02-04T19:03:31.289Z,9.73
2023-02-04T19:17:17.426Z,9.56
2023-02-04T19:20:44.647Z,9.44
2023-02-04T19:25:24.842Z,9.47
2023-02-04T19:49:53.071Z,9.41
2023-02-04T19:55:08.271Z,9.42
2023-02-04T19:57:29.934Z,9.43
2023-02-04T19:59:42.953Z,9.45
2023-02-04T20:04:33.406Z,9.45
2023-02-04T20:06:34.549Z,9.43
2023-02-04T20:08:43.281Z,9.37
2023-02-04T20:10:49.692Z,9.38
2023-02-04T20:12:50.341Z,9.37
2023-02-04T20:14:57.144Z,9.38
2023-02-04T20:20:01.081Z,9.35
2023-02-04T20:21:52.827Z,9.32
2023-02-04T20:23:48.080Z,9.35
2023-02-04T20:25:21.959Z,9.35
2023-02-04T20:27:15.078Z,9.37
2023-02-04T20:28:48.126Z,9.36
2023-02-04T20:31:02.387Z,9.35
2023-02-04T20:32:49.869Z,9.37
2023-02-04T20:34:26.442Z,9.35
2023-02-04T20:36:32.709Z,9.37
2023-02-04T20:38:16.428Z,9.36
2023-02-04T20:40:01.262Z,9.38
2023-02-04T20:41:54.766Z,9.35
2023-02-04T20:44:00.326Z,9.36
2023-02-04T20:46:18.646Z,9.38
2023-02-04T20:53:07.109Z,9.38
2023-02-04T20:57:54.358Z,9.33
2023-02-04T21:00:00.715Z,9.11
2023-02-04T21:02:10.692Z,8.98
2023-02-04T21:04:07.147Z,8.92
2023-02-04T21:06:43.461Z,8.96
2023-02-04T21:09:18.877Z,8.97
2023-02-04T21:11:01.305Z,8.89
2023-02-04T21:12:48.104Z,8.85
2023-02-04T21:15:08.250Z,8.83
2023-02-04T21:16:53.161Z,8.83
2023-02-04T21:18:27.984Z,8.86
2023-02-04T21:20:22.476Z,8.89
2023-02-04T21:22:00.425Z,8.86
2023-02-04T21:23:32.531Z,8.88
2023-02-04T21:25:04.970Z,8.90
2023-02-04T21:26:37.060Z,8.92
2023-02-04T21:28:09.219Z,8.92
2023-02-04T21:29:41.540Z,8.93
2023-02-04T21:31:13.867Z,8.96
2023-02-04T21:32:51.029Z,9.01
2023-02-04T21:34:23.489Z,8.99
2023-02-04T21:35:56.030Z,9.02
2023-02-04T21:37:28.212Z,9.02
2023-02-04T21:39:00.446Z,9.04
2023-02-04T21:40:34.797Z,9.02
2023-02-04T21:42:13.931Z,9.03
2023-02-04T21:43:50.503Z,9.04
2023-02-04T21:45:24.411Z,9.07
2023-02-04T21:47:33.442Z,9.04
2023-02-04T21:49:07.626Z,9.04
2023-02-04T21:50:40.012Z,9.05
2023-02-04T21:52:19.829Z,9.06
2023-02-04T21:53:52.473Z,9.03
2023-02-04T21:55:32.599Z,9.00
2023-02-04T21:57:07.791Z,8.99
2023-02-04T21:58:40.092Z,8.96
2023-02-04T22:00:21.902Z,8.95
2023-02-04T22:02:01.147Z,8.88
2023-02-04T22:03:55.330Z,8.79
2023-02-04T22:05:27.810Z,8.72
2023-02-04T22:07:00.571Z,8.68
2023-02-04T22:08:34.170Z,8.65
2023-02-04T22:10:12.072Z,8.67
2023-02-04T22:11:48.673Z,8.70
2023-02-04T22:13:39.674Z,8.66
2023-02-04T22:15:36.736Z,8.66
2023-02-04T22:17:13.030Z,8.67
2023-02-04T22:18:48.242Z,8.69
2023-02-04T22:20:29.667Z,8.69
2023-02-04T22:22:07.171Z,8.70
2023-02-04T22:23:41.799Z,8.70
2023-02-04T22:25:29.317Z,8.73
2023-02-04T22:27:33.523Z,8.75
2023-02-04T22:29:24.024Z,8.76
2023-02-04T22:31:26.193Z,8.77
2023-02-04T22:33:21.746Z,8.75
2023-02-04T22:35:01.638Z,8.70
2023-02-04T22:36:37.003Z,8.68
2023-02-04T22:38:09.538Z,8.66
2023-02-04T22:39:42.416Z,8.70
2023-02-04T22:41:14.740Z,8.70
2023-02-04T22:42:53.972Z,8.67
2023-02-04T22:44:29.640Z,8.68
2023-02-04T22:46:07.503Z,8.63
2023-02-04T22:47:53.600Z,8.55
2023-02-04T22:49:33.670Z,8.48
2023-02-04T22:51:05.846Z,8.42
2023-02-04T22:52:38.471Z,8.40
2023-02-04T22:54:10.700Z,8.38
2023-02-04T22:55:43.163Z,8.34
2023-02-04T22:57:15.598Z,8.35
2023-02-04T22:58:48.077Z,8.36
2023-02-04T23:00:21.880Z,8.37
2023-02-04T23:01:56.924Z,8.38
2023-02-04T23:03:29.227Z,8.35
2023-02-04T23:05:01.493Z,8.36
2023-02-04T23:06:34.716Z,8.33
2023-02-04T23:08:07.226Z,8.34
2023-02-04T23:09:39.511Z,8.36
2023-02-04T23:11:12.140Z,8.34
2023-02-04T23:12:44.474Z,8.36
2023-02-04T23:14:16.676Z,8.33
2023-02-04T23:15:48.953Z,8.29
2023-02-04T23:17:21.059Z,8.19
2023-02-04T23:18:53.247Z,8.15
2023-02-04T23:20:25.418Z,8.13
2023-02-04T23:21:57.621Z,8.12
2023-02-04T23:23:31.836Z,8.14
2023-02-04T23:25:06.424Z,8.18
2023-02-04T23:26:39.179Z,8.19
2023-02-04T23:28:11.559Z,8.17
2023-02-04T23:29:43.850Z,8.19
2023-02-04T23:31:16.548Z,8.19
2023-02-04T23:32:48.900Z,8.19
2023-02-04T23:34:24.159Z,8.22
2023-02-04T23:35:56.395Z,8.24
2023-02-04T23:37:28.720Z,8.24
2023-02-04T23:39:00.871Z,8.19
2023-02-04T23:40:33.285Z,8.17
2023-02-04T23:42:05.693Z,8.17
2023-02-04T23:43:38.194Z,8.14
2023-02-04T23:45:19.555Z,8.12
2023-02-04T23:47:04.201Z,8.08
2023-02-04T23:48:39.224Z,8.06
2023-02-04T23:50:11.822Z,8.11
2023-02-04T23:51:49.448Z,8.12
2023-02-04T23:53:24.267Z,8.13
2023-02-04T23:54:56.419Z,8.15
2023-02-04T23:56:28.578Z,8.18
2023-02-04T23:58:01.060Z,8.21
2023-02-04T23:59:33.368Z,8.24
